Time;durP1;ratioP1;P1;durP2;ratioP2;P2;SDS_P1;SDS_P2;PMS_P1;PMS_P2;Temp;Humidity;BMP_temperature;BMP_pressure;BME280_temperature;BME280_humidity;BME280_pressure;Samples;Min_cycle;Max_cycle;Signal;HPM_P1;HPM_P2
2022/12/22 03:26:09;;;;;;;4.03;1.30;;;8.20;99.90;;;;;;4115465;28;20206;-67
2022/12/22 03:28:10;;;;;;;3.77;1.30;;;8.20;99.90;;;;;;4129714;28;20591;-67
2022/12/22 03:30:11;;;;;;;4.27;1.13;;;8.20;99.90;;;;;;4112911;28;20194;-67
2022/12/22 03:32:11;;;;;;;4.30;1.03;;;8.20;99.90;;;;;;4112784;28;20246;-66
2022/12/22 03:34:12;;;;;;;3.77;2.10;;;8.20;99.90;;;;;;4128906;28;20198;-69
2022/12/22 03:36:13;;;;;;;1.90;1.63;;;8.20;99.90;;;;;;4130136;28;20217;-68
2022/12/22 03:38:13;;;;;;;4.43;1.30;;;8.10;99.90;;;;;;4128695;28;20210;-67
2022/12/22 03:40:14;;;;;;;2.73;1.53;;;8.00;99.90;;;;;;4112999;28;20186;-68
2022/12/22 03:46:53;;;;;;;9.80;1.93;;;8.00;99.90;;;;;;4129739;28;20598;-68
2022/12/22 03:49:09;;;;;;;2.63;1.33;;;8.00;99.90;;;;;;4129273;28;20202;-70
2022/12/22 03:51:10;;;;;;;2.70;1.07;;;8.20;99.90;;;;;;4114327;28;20337;-68
2022/12/22 03:53:10;;;;;;;4.40;1.50;;;8.10;99.90;;;;;;4129226;28;20229;-68
2022/12/22 03:55:11;;;;;;;6.83;1.80;;;8.10;99.90;;;;;;4130585;28;20194;-68
2022/12/22 03:57:12;;;;;;;2.80;1.10;;;8.20;99.90;;;;;;4129586;28;20193;-70
2022/12/22 03:59:13;;;;;;;4.37;2.43;;;8.20;99.90;;;;;;4128968;28;20941;-69
2022/12/22 04:01:14;;;;;;;10.73;3.87;;;8.20;99.90;;;;;;4112920;28;20233;-68
2022/12/22 04:03:14;;;;;;;7.20;6.47;;;8.20;99.90;;;;;;4129995;28;20211;-68
2022/12/22 04:05:15;;;;;;;5.50;1.73;;;8.20;99.90;;;;;;4128751;28;20860;-69
2022/12/22 04:07:16;;;;;;;3.40;1.30;;;8.10;99.90;;;;;;4129379;28;20669;-69
2022/12/22 04:09:17;;;;;;;4.20;3.07;;;8.10;99.90;;;;;;4128738;28;20207;-70
2022/12/22 04:13:37;;;;;;;5.93;4.50;;;8.20;99.90;;;;;;4128604;28;20190;-68
2022/12/22 04:15:37;;;;;;;5.30;2.50;;;8.20;99.90;;;;;;4129001;28;20664;-67
2022/12/22 04:17:38;;;;;;;6.93;1.33;;;8.10;99.90;;;;;;4127912;28;20233;-67
2022/12/22 04:19:39;;;;;;;4.30;1.13;;;8.00;99.90;;;;;;4129878;28;20189;-67
2022/12/22 04:21:39;;;;;;;6.50;2.37;;;8.10;99.90;;;;;;4129402;28;20195;-67
2022/12/22 04:23:40;;;;;;;6.17;3.23;;;8.00;99.90;;;;;;4129526;28;20271;-67
2022/12/22 04:25:41;;;;;;;7.27;2.53;;;8.10;99.90;;;;;;4129462;28;20222;-67
2022/12/22 04:27:41;;;;;;;6.23;2.20;;;8.10;99.90;;;;;;4111362;28;20574;-67
2022/12/22 04:29:42;;;;;;;7.67;6.10;;;8.10;99.90;;;;;;4112108;28;20293;-67
2022/12/22 04:31:43;;;;;;;4.97;1.40;;;8.10;99.90;;;;;;4121729;28;20194;-67
2022/12/22 04:33:44;;;;;;;2.90;1.57;;;8.00;99.90;;;;;;4096229;29;20187;-67
2022/12/22 04:35:44;;;;;;;4.87;1.50;;;8.10;99.90;;;;;;4113564;28;20187;-67
2022/12/22 04:37:45;;;;;;;4.43;2.50;;;8.20;99.90;;;;;;4112628;28;20206;-67
2022/12/22 04:39:46;;;;;;;6.10;1.90;;;8.30;99.90;;;;;;4096118;29;20714;-67
2022/12/22 04:41:46;;;;;;;7.00;1.40;;;8.40;99.90;;;;;;4113498;28;20587;-66
2022/12/22 04:43:47;;;;;;;5.77;1.53;;;8.40;99.90;;;;;;4113408;28;20911;-66
2022/12/22 04:45:55;;;;;;;5.37;2.10;;;8.40;99.90;;;;;;4105536;28;20633;-65
2022/12/22 04:47:55;;;;;;;6.07;3.77;;;8.50;99.90;;;;;;4111528;28;20202;-66
2022/12/22 04:49:56;;;;;;;5.30;2.53;;;8.50;99.90;;;;;;4129407;28;20552;-65
2022/12/22 04:51:57;;;;;;;4.60;2.23;;;8.60;99.90;;;;;;4129347;28;20672;-65
2022/12/22 04:53:57;;;;;;;7.00;2.33;;;8.60;99.90;;;;;;4129637;28;20214;-66
2022/12/22 04:56:05;;;;;;;5.27;1.37;;;8.60;99.90;;;;;;4129355;28;20190;-66
2022/12/22 04:58:06;;;;;;;5.43;1.77;;;8.60;99.90;;;;;;4111367;28;20292;-65
2022/12/22 05:00:08;;;;;;;5.67;1.50;;;8.50;99.90;;;;;;4129250;28;20229;-66
2022/12/22 05:02:09;;;;;;;6.80;2.90;;;8.50;99.90;;;;;;4111945;28;20254;-67
2022/12/22 05:04:09;;;;;;;16.63;3.60;;;8.50;99.90;;;;;;4129057;28;20190;-66
2022/12/22 05:06:11;;;;;;;4.60;2.73;;;8.50;99.90;;;;;;4112424;28;20219;-67
2022/12/22 05:08:11;;;;;;;5.13;1.50;;;8.50;99.90;;;;;;4111486;28;20222;-70
2022/12/22 05:10:12;;;;;;;8.43;2.10;;;8.50;99.90;;;;;;4129172;28;20282;-68
2022/12/22 05:14:32;;;;;;;5.93;2.10;;;8.60;99.90;;;;;;4129320;28;20730;-68
2022/12/22 05:16:33;;;;;;;4.90;1.50;;;8.60;99.90;;;;;;4129063;28;20190;-69
2022/12/22 05:18:35;;;;;;;4.97;1.63;;;8.50;99.90;;;;;;4112594;28;20218;-67
2022/12/22 05:20:35;;;;;;;5.73;1.57;;;8.60;99.90;;;;;;4112100;28;20179;-69
2022/12/22 05:22:36;;;;;;;5.27;1.77;;;8.60;99.90;;;;;;4111729;28;20659;-69
2022/12/22 05:24:37;;;;;;;11.13;1.80;;;8.60;99.90;;;;;;4111877;28;20957;-68
2022/12/22 05:26:37;;;;;;;7.47;1.50;;;8.60;99.90;;;;;;4130712;28;20186;-68
2022/12/22 05:28:38;;;;;;;13.17;2.63;;;8.60;99.90;;;;;;4132577;28;20208;-69
2022/12/22 05:30:40;;;;;;;7.43;1.93;;;8.50;99.90;;;;;;4132651;28;20183;-69
2022/12/22 05:32:41;;;;;;;4.07;1.47;;;8.50;99.90;;;;;;4104864;28;20235;-70
2022/12/22 05:34:41;;;;;;;8.10;1.47;;;8.50;99.90;;;;;;4107018;28;20195;-69
2022/12/22 05:36:42;;;;;;;4.60;1.53;;;8.50;99.70;;;;;;4114146;28;20191;-69
2022/12/22 05:38:46;;;;;;;2.23;1.60;;;8.40;99.90;;;;;;4131925;28;20209;-69
2022/12/22 05:40:47;;;;;;;3.23;1.53;;;8.30;99.60;;;;;;4114873;28;20186;-69
2022/12/22 05:42:48;;;;;;;5.87;3.10;;;8.30;99.30;;;;;;4114437;28;20197;-70
2022/12/22 05:44:48;;;;;;;5.17;1.80;;;8.30;99.20;;;;;;4098161;29;20601;-69
2022/12/22 05:46:51;;;;;;;12.53;10.93;;;8.30;99.70;;;;;;4130896;28;20556;-69
2022/12/22 05:48:51;;;;;;;2.37;1.43;;;8.20;99.90;;;;;;4114365;28;20215;-68
2022/12/22 05:50:52;;;;;;;4.53;1.57;;;8.20;99.60;;;;;;4113997;28;20294;-68
2022/12/22 05:52:53;;;;;;;7.07;6.43;;;8.20;99.90;;;;;;4131560;28;20194;-69
2022/12/22 05:54:54;;;;;;;7.13;2.13;;;8.10;99.70;;;;;;4114119;28;20186;-69
2022/12/22 05:56:55;;;;;;;5.50;1.50;;;8.10;99.80;;;;;;4113548;28;20183;-69
2022/12/22 05:58:55;;;;;;;6.37;1.30;;;8.10;99.90;;;;;;4114492;28;20210;-68
2022/12/22 06:01:00;;;;;;;5.43;4.93;;;8.10;99.90;;;;;;4131483;28;20214;-69
2022/12/22 06:03:01;;;;;;;3.77;2.63;;;8.00;99.80;;;;;;4114298;28;20674;-68
2022/12/22 06:05:01;;;;;;;6.63;1.40;;;8.00;99.20;;;;;;4131295;28;20218;-66
2022/12/22 06:07:02;;;;;;;4.97;1.67;;;8.20;98.70;;;;;;4113364;28;20253;-67
2022/12/22 06:09:03;;;;;;;3.47;1.43;;;8.10;99.10;;;;;;4130808;28;20220;-66
2022/12/22 06:11:03;;;;;;;6.87;1.43;;;8.10;99.20;;;;;;4131464;28;20603;-66
2022/12/22 06:13:04;;;;;;;4.83;3.27;;;8.00;98.70;;;;;;4131524;28;20186;-66
2022/12/22 06:15:06;;;;;;;5.23;1.73;;;8.00;98.30;;;;;;4131290;28;20200;-65
2022/12/22 06:17:07;;;;;;;4.07;1.73;;;8.00;98.10;;;;;;4112994;28;20219;-64
2022/12/22 06:19:07;;;;;;;5.00;2.53;;;8.20;97.40;;;;;;4113350;28;20587;-64
2022/12/22 06:21:08;;;;;;;9.27;3.37;;;8.10;97.20;;;;;;4131097;28;20249;-64
2022/12/22 06:23:09;;;;;;;11.23;10.23;;;8.10;97.10;;;;;;4113851;28;20213;-64
2022/12/22 06:25:09;;;;;;;7.13;1.80;;;8.20;96.90;;;;;;4129589;28;20213;-65
2022/12/22 06:27:11;;;;;;;7.00;2.23;;;8.20;97.60;;;;;;4130768;28;20179;-64
2022/12/22 06:29:11;;;;;;;5.30;2.33;;;8.20;98.00;;;;;;4131209;28;20252;-64
2022/12/22 06:31:12;;;;;;;11.97;11.10;;;8.10;99.60;;;;;;4113503;28;20233;-63
2022/12/22 06:33:13;;;;;;;6.03;2.63;;;8.00;99.90;;;;;;4130978;28;20178;-64
2022/12/22 06:35:13;;;;;;;8.53;2.07;;;7.90;99.90;;;;;;4130839;28;20186;-63
2022/12/22 06:37:14;;;;;;;6.77;2.10;;;7.80;99.90;;;;;;4129455;28;20198;-63
2022/12/22 06:39:16;;;;;;;10.33;2.30;;;7.80;99.90;;;;;;4130744;28;20185;-63
2022/12/22 06:43:07;;;;;;;6.77;1.77;;;7.70;99.90;;;;;;4100423;28;20195;-63
2022/12/22 06:43:37;;;;;;;5.30;1.87;;;7.80;99.90;;;;;;4114900;28;20197;-62
2022/12/22 06:45:40;;;;;;;4.67;2.07;;;7.90;99.90;;;;;;4114854;28;20203;-65
2022/12/22 06:47:41;;;;;;;5.73;1.87;;;7.80;99.90;;;;;;4114070;28;20233;-61
2022/12/22 06:49:42;;;;;;;6.60;2.50;;;7.80;99.90;;;;;;4114701;28;20179;-62
2022/12/22 06:51:43;;;;;;;6.47;1.80;;;7.70;99.90;;;;;;4114617;28;20274;-63
2022/12/22 06:53:43;;;;;;;7.43;2.17;;;7.80;99.90;;;;;;4097388;29;20596;-62
2022/12/22 06:55:44;;;;;;;8.53;2.33;;;7.70;99.90;;;;;;4114610;28;20218;-63
2022/12/22 06:57:45;;;;;;;11.70;2.53;;;7.60;99.90;;;;;;4113977;28;20239;-62
2022/12/22 06:59:45;;;;;;;8.33;4.87;;;7.60;99.90;;;;;;4114721;28;20193;-61
2022/12/22 07:01:46;;;;;;;8.60;1.90;;;7.50;99.90;;;;;;4114438;28;20186;-63
2022/12/22 07:03:47;;;;;;;9.63;1.63;;;7.50;99.90;;;;;;4114634;28;20660;-63
2022/12/22 07:05:47;;;;;;;4.37;2.10;;;7.50;99.90;;;;;;4114623;28;20564;-63
2022/12/22 07:07:49;;;;;;;8.40;2.20;;;7.50;99.90;;;;;;4113820;28;20269;-63
2022/12/22 07:09:49;;;;;;;8.90;2.13;;;7.40;99.90;;;;;;4114497;28;20185;-63
2022/12/22 07:11:50;;;;;;;7.73;1.57;;;7.50;99.90;;;;;;4114521;28;20185;-63
2022/12/22 07:13:51;;;;;;;5.57;1.40;;;7.60;99.90;;;;;;4114379;28;20186;-63
2022/12/22 07:15:52;;;;;;;8.47;1.83;;;7.60;99.90;;;;;;4114592;28;20201;-64
2022/12/22 07:17:53;;;;;;;12.60;2.23;;;7.70;99.90;;;;;;4113500;28;20210;-63
2022/12/22 07:19:53;;;;;;;7.17;2.37;;;7.70;99.90;;;;;;4114200;28;20186;-63
2022/12/22 07:21:54;;;;;;;8.20;1.80;;;7.70;99.90;;;;;;4114233;28;20179;-63
2022/12/22 07:23:55;;;;;;;7.13;3.20;;;7.80;99.90;;;;;;4114279;28;20190;-66
2022/12/22 07:25:56;;;;;;;9.67;5.17;;;7.90;99.90;;;;;;4096709;29;20619;-63
2022/12/22 07:27:56;;;;;;;7.83;2.90;;;7.90;99.90;;;;;;4113651;28;20278;-64
2022/12/22 07:29:57;;;;;;;9.93;2.70;;;8.00;99.90;;;;;;4114285;28;20248;-63
2022/12/22 07:31:58;;;;;;;7.37;2.30;;;8.10;99.90;;;;;;4114423;28;20202;-65
2022/12/22 07:33:58;;;;;;;9.57;5.23;;;8.10;99.90;;;;;;4114122;28;20183;-63
2022/12/22 07:36:19;;;;;;;10.83;4.07;;;8.10;99.90;;;;;;4114161;28;20183;-64
2022/12/22 07:38:19;;;;;;;9.00;2.23;;;8.20;99.90;;;;;;4113622;28;20557;-63
2022/12/22 07:40:20;;;;;;;8.63;1.87;;;8.30;99.90;;;;;;4114079;28;20252;-64
2022/12/22 07:44:40;;;;;;;6.17;2.37;;;8.30;99.90;;;;;;4114009;28;20310;-63
2022/12/22 07:46:41;;;;;;;8.50;2.43;;;8.40;99.20;;;;;;4113114;28;20221;-65
2022/12/22 07:51:04;;;;;;;7.13;1.50;;;8.40;99.50;;;;;;4113926;28;20230;-63
2022/12/22 07:53:04;;;;;;;4.70;1.40;;;8.40;98.80;;;;;;4113873;28;20232;-64
2022/12/22 07:55:06;;;;;;;6.53;1.57;;;8.50;99.10;;;;;;4113699;28;20665;-64
2022/12/22 07:57:07;;;;;;;10.53;6.40;;;8.40;99.50;;;;;;4112963;28;20189;-63
2022/12/22 07:59:08;;;;;;;6.93;1.57;;;8.40;99.10;;;;;;4113534;28;20214;-63
2022/12/22 08:01:09;;;;;;;5.93;1.80;;;8.30;99.90;;;;;;4113559;28;20186;-63
2022/12/22 08:03:10;;;;;;;4.93;2.87;;;8.20;99.90;;;;;;4113537;28;20798;-64
2022/12/22 08:05:10;;;;;;;6.83;1.60;;;8.00;99.90;;;;;;4113542;28;20338;-64
2022/12/22 08:07:11;;;;;;;8.30;1.90;;;7.80;99.90;;;;;;4112989;28;20568;-64
2022/12/22 08:09:17;;;;;;;9.63;2.10;;;7.90;99.90;;;;;;4096204;29;20214;-64
2022/12/22 08:11:17;;;;;;;6.63;1.83;;;7.90;99.90;;;;;;4113708;28;20190;-63
2022/12/22 08:13:19;;;;;;;9.10;7.30;;;7.80;99.90;;;;;;4113472;28;20270;-64
2022/12/22 08:15:19;;;;;;;11.27;10.20;;;7.70;99.90;;;;;;4113752;28;20595;-65
2022/12/22 08:17:20;;;;;;;4.33;1.47;;;7.60;99.90;;;;;;4095718;29;20186;-63
2022/12/22 08:19:21;;;;;;;8.83;3.73;;;7.60;99.90;;;;;;4113757;28;20186;-63
2022/12/22 08:21:22;;;;;;;11.00;9.13;;;7.50;99.90;;;;;;4096096;29;20269;-62
2022/12/22 08:23:23;;;;;;;5.13;1.93;;;7.50;99.90;;;;;;4113284;28;20190;-63
2022/12/22 08:25:23;;;;;;;10.53;4.33;;;7.50;99.90;;;;;;4101175;28;20214;-63
2022/12/22 08:27:41;;;;;;;6.13;1.53;;;7.40;99.90;;;;;;4128577;28;20174;-64
2022/12/22 08:29:47;;;;;;;8.00;1.77;;;7.40;99.90;;;;;;4112123;28;20174;-63
2022/12/22 08:31:47;;;;;;;6.60;3.97;;;7.40;99.90;;;;;;4111961;28;20259;-64
2022/12/22 08:33:48;;;;;;;5.33;2.03;;;7.50;99.90;;;;;;4111828;28;20210;-64
2022/12/22 08:35:49;;;;;;;4.27;1.53;;;7.60;99.90;;;;;;4112010;28;20195;-64
2022/12/22 08:37:51;;;;;;;7.63;3.33;;;7.70;99.90;;;;;;4128581;28;20220;-64
2022/12/22 08:39:57;;;;;;;6.20;1.80;;;7.60;99.90;;;;;;4111997;28;20190;-64
2022/12/22 08:41:58;;;;;;;5.47;1.70;;;7.50;99.90;;;;;;4111952;28;20749;-63
2022/12/22 08:43:59;;;;;;;10.07;1.73;;;7.60;99.90;;;;;;4129433;28;20189;-64
2022/12/22 08:46:00;;;;;;;5.83;2.63;;;7.80;99.90;;;;;;4125781;28;20213;-64
2022/12/22 08:48:01;;;;;;;6.40;5.70;;;7.80;99.90;;;;;;4095308;29;20244;-64
2022/12/22 08:50:02;;;;;;;4.67;1.37;;;7.80;99.90;;;;;;4113465;28;20654;-64
2022/12/22 08:52:03;;;;;;;5.60;2.90;;;7.90;99.90;;;;;;4113238;28;20671;-64
2022/12/22 08:54:04;;;;;;;4.77;1.40;;;8.00;99.90;;;;;;4096032;29;20194;-64
2022/12/22 08:56:05;;;;;;;7.50;3.07;;;8.10;99.90;;;;;;4113148;28;20272;-63
2022/12/22 08:58:06;;;;;;;10.30;1.87;;;8.10;99.90;;;;;;4112321;28;20563;-64
2022/12/22 09:00:09;;;;;;;7.43;1.77;;;8.00;99.90;;;;;;4112405;28;20198;-63
2022/12/22 09:02:09;;;;;;;3.63;1.57;;;7.90;99.90;;;;;;4139752;28;20209;-63
2022/12/22 09:04:15;;;;;;;6.67;2.43;;;7.70;99.90;;;;;;4140145;28;20221;-63
2022/12/22 09:06:21;;;;;;;3.80;1.60;;;7.70;99.90;;;;;;4140723;28;20205;-63
2022/12/22 09:08:22;;;;;;;7.80;1.77;;;7.70;99.90;;;;;;4140768;28;20214;-63
2022/12/22 09:10:23;;;;;;;13.40;12.27;;;7.60;99.90;;;;;;4150117;28;20188;-63
2022/12/22 09:12:23;;;;;;;5.47;2.50;;;7.70;99.90;;;;;;4139866;28;20234;-63
2022/12/22 09:14:24;;;;;;;4.77;1.73;;;7.60;99.90;;;;;;4142468;28;20181;-63
2022/12/22 09:16:28;;;;;;;5.50;1.60;;;7.50;99.90;;;;;;4137422;28;20240;-62
2022/12/22 09:18:28;;;;;;;4.70;1.60;;;7.40;99.90;;;;;;4130498;28;20208;-63
2022/12/22 09:20:29;;;;;;;7.63;1.93;;;7.50;99.90;;;;;;4137390;28;20205;-62
2022/12/22 09:22:30;;;;;;;11.63;6.47;;;7.40;99.90;;;;;;4142785;28;20945;-61
2022/12/22 09:24:30;;;;;;;22.93;5.13;;;7.30;99.90;;;;;;4137010;28;20681;-62
2022/12/22 09:26:31;;;;;;;5.97;2.63;;;7.30;99.90;;;;;;4141518;28;20350;-66
2022/12/22 09:28:32;;;;;;;12.63;2.00;;;7.30;99.90;;;;;;4130928;28;20201;-63
2022/12/22 09:30:32;;;;;;;10.63;4.13;;;7.20;99.90;;;;;;4148445;28;20178;-62
2022/12/22 09:32:33;;;;;;;8.27;1.67;;;7.20;99.90;;;;;;4148208;28;20178;-62
2022/12/22 09:34:34;;;;;;;11.07;5.40;;;7.30;99.90;;;;;;4130614;28;20216;-62
2022/12/22 09:36:35;;;;;;;11.90;3.37;;;7.30;99.90;;;;;;4146860;28;20188;-62
2022/12/22 09:38:37;;;;;;;9.07;2.77;;;7.40;99.90;;;;;;4147540;28;20212;-62
2022/12/22 09:40:38;;;;;;;13.77;12.10;;;7.40;99.90;;;;;;4147883;28;20193;-62
2022/12/22 09:42:38;;;;;;;11.33;6.97;;;7.50;99.90;;;;;;4148000;28;20181;-62
2022/12/22 09:44:46;;;;;;;13.17;9.93;;;7.60;99.90;;;;;;4113507;28;20273;-62
2022/12/22 09:46:47;;;;;;;6.93;2.83;;;7.70;99.90;;;;;;4147017;28;20181;-62
2022/12/22 09:48:48;;;;;;;10.90;4.07;;;7.80;99.90;;;;;;4130539;28;20713;-62
2022/12/22 09:50:49;;;;;;;12.30;1.80;;;8.00;99.90;;;;;;4130361;28;20193;-62
2022/12/22 09:52:54;;;;;;;6.97;1.93;;;8.00;99.90;;;;;;4130356;28;20185;-62
2022/12/22 09:54:55;;;;;;;6.47;4.50;;;8.10;99.90;;;;;;4148182;28;20182;-62
2022/12/22 09:56:57;;;;;;;5.77;2.83;;;8.00;99.90;;;;;;4130155;28;20676;-60
2022/12/22 09:58:59;;;;;;;2.90;1.40;;;8.00;99.90;;;;;;4130676;28;20799;-62
2022/12/22 10:01:33;;;;;;;9.73;3.27;;;7.90;99.90;;;;;;4130549;28;20752;-62
2022/12/22 10:03:55;;;;;;;5.97;2.73;;;7.90;99.90;;;;;;4148026;28;20184;-62
2022/12/22 10:06:06;;;;;;;6.97;2.67;;;7.80;99.90;;;;;;4130564;28;20205;-61
2022/12/22 10:08:26;;;;;;;7.30;5.57;;;7.70;99.90;;;;;;4129574;28;20707;-62
2022/12/22 10:10:30;;;;;;;4.07;2.63;;;7.60;99.90;;;;;;4147601;28;20625;-62
2022/12/22 10:12:30;;;;;;;4.57;2.07;;;7.70;99.90;;;;;;4146325;28;20186;-62
2022/12/22 10:14:36;;;;;;;11.03;7.43;;;7.70;99.90;;;;;;4147562;28;20691;-61
2022/12/22 10:16:37;;;;;;;8.20;2.43;;;7.80;99.90;;;;;;4146866;28;20699;-61
2022/12/22 10:18:37;;;;;;;11.27;3.70;;;7.80;99.90;;;;;;4147669;28;20243;-62
2022/12/22 10:20:40;;;;;;;5.57;3.73;;;7.90;99.90;;;;;;4147602;28;20184;-61
2022/12/22 10:23:12;;;;;;;3.70;1.90;;;7.90;99.90;;;;;;4147516;28;20182;-61
2022/12/22 10:25:56;;;;;;;8.10;7.27;;;8.00;99.90;;;;;;4143343;28;20247;-61
2022/12/22 10:28:00;;;;;;;5.90;1.70;;;8.10;99.90;;;;;;4147013;28;20335;-60
2022/12/22 10:30:32;;;;;;;5.87;1.67;;;8.00;99.90;;;;;;4147522;28;20197;-61
2022/12/22 10:32:33;;;;;;;5.03;1.50;;;8.00;99.90;;;;;;4147208;28;20192;-60
2022/12/22 10:34:33;;;;;;;7.67;6.03;;;8.00;99.90;;;;;;4122323;28;20194;-60
2022/12/22 10:36:35;;;;;;;9.40;1.67;;;8.00;99.90;;;;;;4129191;28;20245;-61
2022/12/22 10:38:54;;;;;;;7.27;2.67;;;8.10;99.90;;;;;;4113881;28;20238;-61
2022/12/22 10:41:21;;;;;;;10.00;9.13;;;8.10;99.90;;;;;;4131229;28;20178;-61
2022/12/22 10:43:27;;;;;;;10.03;7.70;;;8.10;99.90;;;;;;4113881;28;20674;-61
2022/12/22 10:45:27;;;;;;;6.03;1.90;;;7.90;99.90;;;;;;4113675;28;20198;-61
2022/12/22 10:47:28;;;;;;;12.43;7.47;;;7.80;99.90;;;;;;4130402;28;20190;-61
2022/12/22 10:49:35;;;;;;;11.37;3.30;;;7.90;99.90;;;;;;4113872;28;20191;-61
2022/12/22 10:51:36;;;;;;;8.13;2.50;;;7.90;99.90;;;;;;4113893;28;20187;-60
2022/12/22 10:53:52;;;;;;;7.20;2.07;;;7.90;99.90;;;;;;4097562;29;20218;-61
2022/12/22 10:56:05;;;;;;;5.43;4.77;;;7.90;99.90;;;;;;4113451;28;20214;-61
2022/12/22 10:58:09;;;;;;;10.93;2.23;;;7.80;99.90;;;;;;4112878;28;20202;-61
2022/12/22 11:00:29;;;;;;;6.27;2.13;;;7.90;99.90;;;;;;4131040;28;20724;-61
2022/12/22 11:02:36;;;;;;;10.13;5.83;;;8.10;99.90;;;;;;4130737;28;20545;-62
2022/12/22 11:04:36;;;;;;;6.10;1.80;;;8.20;99.90;;;;;;4113483;28;20175;-62
2022/12/22 11:06:37;;;;;;;8.10;1.70;;;8.20;99.90;;;;;;4130025;28;20218;-61
2022/12/22 11:08:38;;;;;;;8.30;2.70;;;8.20;99.90;;;;;;4112915;28;20221;-61
2022/12/22 11:10:56;;;;;;;9.10;2.50;;;8.20;99.90;;;;;;4139636;28;20228;-61
2022/12/22 11:13:34;;;;;;;8.07;1.93;;;8.20;99.90;;;;;;4126316;28;20182;-61
2022/12/22 11:16:01;;;;;;;9.30;2.47;;;8.20;99.90;;;;;;4131096;28;20240;-61
2022/12/22 11:19:09;;;;;;;9.03;5.27;;;8.20;99.90;;;;;;4104443;28;20215;-61
2022/12/22 11:21:51;;;;;;;10.43;5.50;;;8.10;99.90;;;;;;4065153;29;20275;-61
2022/12/22 11:24:35;;;;;;;7.40;2.03;;;8.20;99.90;;;;;;4113248;28;20209;-64
2022/12/22 11:26:48;;;;;;;13.37;4.10;;;8.40;99.90;;;;;;4130207;28;20276;-62
2022/12/22 11:29:29;;;;;;;7.47;2.10;;;8.70;99.90;;;;;;4113446;28;20203;-63
2022/12/22 11:31:49;;;;;;;6.93;1.90;;;9.00;99.90;;;;;;4130748;28;20178;-62
2022/12/22 11:34:27;;;;;;;7.20;2.63;;;9.40;98.80;;;;;;4113317;28;20211;-62
2022/12/22 11:37:06;;;;;;;8.07;2.33;;;9.50;97.20;;;;;;4130161;28;20217;-62
2022/12/22 11:39:14;;;;;;;8.60;2.20;;;9.30;98.00;;;;;;4113110;28;20285;-62
2022/12/22 11:41:56;;;;;;;11.57;6.40;;;9.70;96.60;;;;;;4112907;28;20292;-62
2022/12/22 11:44:13;;;;;;;11.93;4.00;;;9.80;95.10;;;;;;4113218;28;20206;-62
2022/12/22 11:46:22;;;;;;;5.57;2.03;;;9.80;95.70;;;;;;4112470;28;20712;-62
2022/12/22 11:48:53;;;;;;;8.70;4.23;;;9.80;95.40;;;;;;4129900;28;20657;-63
2022/12/22 11:51:33;;;;;;;12.03;6.37;;;9.70;95.70;;;;;;4130029;28;20665;-62
2022/12/22 11:54:03;;;;;;;9.33;4.40;;;9.60;95.20;;;;;;4096123;28;20619;-62
2022/12/22 11:56:24;;;;;;;9.13;2.80;;;9.40;96.20;;;;;;4129925;28;20178;-62
2022/12/22 11:59:05;;;;;;;8.40;3.97;;;9.20;97.40;;;;;;4112388;28;20207;-62
2022/12/22 12:01:39;;;;;;;5.80;3.10;;;8.90;98.10;;;;;;4129968;28;20553;-62
2022/12/22 12:04:15;;;;;;;8.23;1.97;;;8.70;98.60;;;;;;4112368;28;20196;-62
2022/12/22 12:06:53;;;;;;;12.03;2.60;;;8.50;99.90;;;;;;4112520;28;20217;-63
2022/12/22 12:09:04;;;;;;;9.57;4.93;;;8.20;99.90;;;;;;4112159;28;20224;-63
2022/12/22 12:11:38;;;;;;;10.17;4.30;;;8.10;99.90;;;;;;4096381;29;20233;-64
2022/12/22 12:14:16;;;;;;;7.30;4.23;;;8.10;99.90;;;;;;4112533;28;20262;-62
2022/12/22 12:16:32;;;;;;;4.17;1.80;;;8.00;99.90;;;;;;4129549;28;20660;-62
2022/12/22 12:19:05;;;;;;;12.20;3.70;;;8.20;99.90;;;;;;4112159;28;20859;-62
2022/12/22 12:21:27;;;;;;;7.80;2.20;;;8.40;99.90;;;;;;4112346;28;20185;-62
2022/12/22 12:24:09;;;;;;;7.47;1.90;;;8.50;99.90;;;;;;4129351;28;20197;-62
2022/12/22 12:26:23;;;;;;;5.10;2.57;;;8.40;99.90;;;;;;4118444;28;20245;-61
2022/12/22 12:28:58;;;;;;;12.73;2.77;;;8.20;99.90;;;;;;4112055;28;20609;-62
2022/12/22 12:31:00;;;;;;;12.90;3.10;;;7.90;99.90;;;;;;4129725;28;20741;-62
2022/12/22 12:33:25;;;;;;;9.10;2.00;;;7.70;99.90;;;;;;4111817;28;20686;-63
2022/12/22 12:35:48;;;;;;;13.97;4.00;;;7.70;99.90;;;;;;4095975;28;20693;-63
2022/12/22 12:38:01;;;;;;;10.83;4.80;;;7.70;99.90;;;;;;4095422;29;20212;-63
2022/12/22 12:40:37;;;;;;;14.77;6.47;;;7.60;99.90;;;;;;4095982;29;20179;-63
2022/12/22 12:42:42;;;;;;;7.20;3.63;;;7.80;99.90;;;;;;4111928;28;20247;-63
2022/12/22 12:44:43;;;;;;;15.27;4.23;;;7.90;99.90;;;;;;4113130;28;20685;-63
2022/12/22 12:46:49;;;;;;;11.07;3.20;;;8.30;99.90;;;;;;4111186;28;20217;-63
2022/12/22 12:48:50;;;;;;;11.63;3.67;;;9.10;99.90;;;;;;4113317;28;20231;-63
2022/12/22 12:50:57;;;;;;;9.33;3.83;;;9.60;99.90;;;;;;4113372;28;20191;-63
2022/12/22 12:53:02;;;;;;;12.53;4.20;;;9.80;99.90;;;;;;4113003;28;20272;-63
2022/12/22 12:55:28;;;;;;;14.67;7.20;;;10.00;99.90;;;;;;4113400;28;20278;-63
2022/12/22 12:57:46;;;;;;;11.57;3.17;;;9.70;99.90;;;;;;4112548;28;20175;-63
2022/12/22 12:59:48;;;;;;;14.93;2.80;;;9.60;99.90;;;;;;4113350;28;20266;-63
2022/12/22 13:01:57;;;;;;;9.63;3.43;;;9.70;99.90;;;;;;4115039;28;20651;-63
2022/12/22 13:03:58;;;;;;;6.30;2.10;;;9.70;99.90;;;;;;4113270;28;20190;-63
2022/12/22 13:06:02;;;;;;;9.80;3.07;;;9.40;99.50;;;;;;4113084;28;20215;-63
2022/12/22 13:08:20;;;;;;;10.30;4.83;;;9.00;99.90;;;;;;4112355;28;20218;-63
2022/12/22 13:10:24;;;;;;;8.80;2.40;;;8.60;99.90;;;;;;4113396;28;21018;-63
2022/12/22 13:12:47;;;;;;;5.63;2.17;;;8.60;99.90;;;;;;4101654;29;20818;-62
2022/12/22 13:15:00;;;;;;;8.40;2.40;;;9.00;99.90;;;;;;4102555;29;20172;-62
2022/12/22 13:17:39;;;;;;;9.47;5.50;;;9.30;99.90;;;;;;4095773;28;20188;-62
2022/12/22 13:19:40;;;;;;;8.30;2.03;;;9.00;99.90;;;;;;4113335;28;20218;-63
2022/12/22 13:21:44;;;;;;;10.60;3.73;;;8.90;99.90;;;;;;4113157;28;20198;-61
2022/12/22 13:24:22;;;;;;;10.10;1.80;;;9.20;99.90;;;;;;4095962;29;20203;-62
2022/12/22 13:26:26;;;;;;;9.60;2.27;;;8.90;99.90;;;;;;4109429;28;20241;-64
2022/12/22 13:28:28;;;;;;;11.27;2.20;;;9.00;99.90;;;;;;4095588;29;20306;-63
2022/12/22 13:30:30;;;;;;;9.07;2.10;;;9.20;99.90;;;;;;4095878;29;20319;-63
2022/12/22 13:32:35;;;;;;;9.17;2.53;;;9.90;99.90;;;;;;4112954;28;20595;-63
2022/12/22 13:35:00;;;;;;;8.70;1.87;;;10.50;98.00;;;;;;4095813;29;20199;-63
2022/12/22 13:37:17;;;;;;;7.67;1.67;;;10.60;97.50;;;;;;4095440;29;20219;-63
2022/12/22 13:39:17;;;;;;;9.47;3.03;;;10.30;97.60;;;;;;4113512;28;20175;-62
2022/12/22 13:41:20;;;;;;;4.77;1.73;;;9.80;97.80;;;;;;4113008;28;20198;-62
2022/12/22 13:43:20;;;;;;;9.00;3.10;;;9.30;99.20;;;;;;4096011;29;20327;-62
2022/12/22 13:45:44;;;;;;;11.63;1.60;;;9.00;99.90;;;;;;4112904;28;20215;-62
2022/12/22 13:47:47;;;;;;;6.57;1.97;;;8.90;99.90;;;;;;4114159;28;20209;-62
2022/12/22 13:49:47;;;;;;;5.90;2.07;;;9.10;99.90;;;;;;4115637;28;20179;-62
2022/12/22 13:51:48;;;;;;;5.27;2.03;;;9.50;99.90;;;;;;4115762;28;20187;-62
2022/12/22 13:53:57;;;;;;;10.67;2.90;;;9.50;99.90;;;;;;4098612;29;20230;-62
2022/12/22 13:55:58;;;;;;;7.23;3.63;;;9.50;99.90;;;;;;4098774;29;20209;-62
2022/12/22 13:58:23;;;;;;;8.03;2.20;;;9.60;98.90;;;;;;4115116;28;20288;-62
2022/12/22 14:00:27;;;;;;;9.80;2.63;;;9.50;98.80;;;;;;4098350;29;20702;-62
2022/12/22 14:02:31;;;;;;;10.07;2.60;;;9.40;98.70;;;;;;4098186;29;20219;-63
2022/12/22 14:04:32;;;;;;;8.23;1.70;;;9.50;99.50;;;;;;4115365;28;20194;-62
2022/12/22 14:06:37;;;;;;;6.80;1.63;;;9.40;98.00;;;;;;4114547;28;20218;-62
2022/12/22 14:08:38;;;;;;;15.87;5.73;;;9.20;98.70;;;;;;4115421;28;20261;-62
2022/12/22 14:10:43;;;;;;;11.33;3.10;;;9.20;99.30;;;;;;4116081;28;20195;-62
2022/12/22 14:12:45;;;;;;;10.90;2.50;;;9.40;98.60;;;;;;4115416;28;20201;-62
2022/12/22 14:14:49;;;;;;;8.37;3.10;;;9.50;98.10;;;;;;4115348;28;20214;-61
2022/12/22 14:16:52;;;;;;;9.53;2.47;;;9.20;97.90;;;;;;4114607;28;20218;-61
2022/12/22 14:18:53;;;;;;;19.37;8.17;;;8.90;98.50;;;;;;4098327;29;20215;-62
2022/12/22 14:20:55;;;;;;;20.70;7.20;;;8.80;99.00;;;;;;4115279;28;20221;-62
2022/12/22 14:23:10;;;;;;;5.93;2.00;;;8.80;99.60;;;;;;4097902;29;20188;-62
2022/12/22 14:25:19;;;;;;;16.73;5.03;;;8.90;99.40;;;;;;4098289;29;20267;-62
2022/12/22 14:27:49;;;;;;;7.80;1.90;;;8.80;99.50;;;;;;4114600;28;20182;-62
2022/12/22 14:29:50;;;;;;;17.27;5.73;;;8.70;99.40;;;;;;4115128;28;20187;-62
2022/12/22 14:32:01;;;;;;;7.17;1.90;;;8.60;99.90;;;;;;4114913;28;20194;-62
2022/12/22 14:34:05;;;;;;;14.03;4.47;;;8.50;99.90;;;;;;4102018;29;20642;-62
2022/12/22 14:36:20;;;;;;;6.50;1.87;;;8.40;99.70;;;;;;4105241;28;20194;-62
2022/12/22 14:38:24;;;;;;;12.70;3.83;;;8.30;99.30;;;;;;4131071;28;20268;-62
2022/12/22 14:40:32;;;;;;;7.10;2.30;;;8.30;99.60;;;;;;4113563;28;20215;-62
2022/12/22 14:42:33;;;;;;;6.53;2.17;;;8.30;99.90;;;;;;4130898;28;20223;-62
2022/12/22 14:44:43;;;;;;;9.80;2.20;;;8.30;99.40;;;;;;4131195;28;20185;-62
2022/12/22 14:46:59;;;;;;;9.93;3.00;;;8.20;99.80;;;;;;4113162;28;20573;-62